Time;durP1;ratioP1;P1;durP2;ratioP2;P2;SDS_P1;SDS_P2;PMS_P1;PMS_P2;Temp;Humidity;BMP_temperature;BMP_pressure;BME280_temperature;BME280_humidity;BME280_pressure;Samples;Min_cycle;Max_cycle;Signal;HPM_P1;HPM_P2
2024/01/18 00:01:34;;;;;;;30.23;18.55;;;;;;;;;;4970507;28;20082;-69
2024/01/18 00:04:00;;;;;;;24.00;15.00;;;;;;;;;;4970483;28;20046;-69
2024/01/18 00:06:27;;;;;;;27.90;15.27;;;;;;;;;;4978836;28;20613;-70
2024/01/18 00:08:53;;;;;;;22.00;11.77;;;;;;;;;;4986285;28;20050;-70
2024/01/18 00:11:19;;;;;;;20.05;12.52;;;;;;;;;;4974583;28;20146;-70
2024/01/18 00:13:45;;;;;;;17.08;10.50;;;;;;;;;;4986295;28;20046;-70
2024/01/18 00:16:11;;;;;;;25.05;9.90;;;;;;;;;;4971655;28;20094;-70
2024/01/18 00:18:37;;;;;;;19.98;10.15;;;;;;;;;;4966663;28;20056;-69
2024/01/18 00:21:04;;;;;;;18.65;10.10;;;;;;;;;;4948687;28;20035;-70
2024/01/18 00:23:30;;;;;;;18.77;9.40;;;;;;;;;;4941787;28;20034;-70
2024/01/18 00:25:56;;;;;;;18.08;9.05;;;;;;;;;;4961089;28;20133;-69
2024/01/18 00:28:22;;;;;;;16.77;9.77;;;;;;;;;;4950636;28;20053;-69
2024/01/18 00:30:48;;;;;;;13.30;8.15;;;;;;;;;;4964139;28;20046;-69
2024/01/18 00:33:14;;;;;;;16.40;8.20;;;;;;;;;;4969942;28;20043;-69
2024/01/18 00:35:40;;;;;;;20.02;9.73;;;;;;;;;;4969939;28;20058;-69
2024/01/18 00:38:06;;;;;;;20.48;8.32;;;;;;;;;;4948293;28;20042;-69
2024/01/18 00:40:32;;;;;;;14.60;7.55;;;;;;;;;;4953220;28;20597;-69
2024/01/18 00:42:58;;;;;;;17.45;7.70;;;;;;;;;;4953855;28;20762;-69
2024/01/18 00:45:24;;;;;;;16.02;8.45;;;;;;;;;;4953213;28;20038;-69
2024/01/18 00:47:50;;;;;;;14.88;8.13;;;;;;;;;;4969957;28;20461;-69
2024/01/18 00:50:16;;;;;;;13.10;7.80;;;;;;;;;;4969007;28;20239;-69
2024/01/18 00:52:42;;;;;;;12.77;7.30;;;;;;;;;;4968865;28;20050;-69
2024/01/18 00:55:09;;;;;;;17.35;7.88;;;;;;;;;;4972673;28;20073;-69
2024/01/18 00:57:35;;;;;;;14.82;8.20;;;;;;;;;;4969277;28;20039;-69
2024/01/18 01:00:02;;;;;;;13.75;7.30;;;;;;;;;;4968719;28;20050;-69
2024/01/18 01:02:28;;;;;;;14.40;8.15;;;;;;;;;;4970393;28;20124;-69
2024/01/18 01:04:54;;;;;;;14.10;7.93;;;;;;;;;;4936814;28;20058;-69
2024/01/18 01:07:20;;;;;;;14.60;7.85;;;;;;;;;;4953475;28;20054;-69
2024/01/18 01:09:46;;;;;;;14.85;7.38;;;;;;;;;;4957845;28;20130;-69
2024/01/18 01:12:12;;;;;;;14.00;7.72;;;;;;;;;;4962262;28;20053;-69
2024/01/18 01:14:38;;;;;;;15.35;7.63;;;;;;;;;;4953273;28;20129;-69
2024/01/18 01:17:04;;;;;;;15.63;7.60;;;;;;;;;;4953174;28;20042;-69
2024/01/18 01:19:30;;;;;;;14.77;7.20;;;;;;;;;;4967891;28;20053;-70
2024/01/18 01:21:56;;;;;;;13.35;7.32;;;;;;;;;;4950519;28;20501;-69
2024/01/18 01:24:22;;;;;;;13.27;7.88;;;;;;;;;;4953237;28;20074;-70
2024/01/18 01:26:48;;;;;;;12.25;7.40;;;;;;;;;;4970449;28;20130;-69
2024/01/18 01:29:15;;;;;;;11.88;6.85;;;;;;;;;;4963179;28;20046;-69
2024/01/18 01:31:41;;;;;;;11.30;6.25;;;;;;;;;;4937271;28;20043;-70
2024/01/18 01:34:07;;;;;;;11.93;6.57;;;;;;;;;;4953117;28;20054;-70
2024/01/18 01:36:33;;;;;;;13.23;6.93;;;;;;;;;;4952895;28;20043;-70
2024/01/18 01:38:59;;;;;;;13.35;6.28;;;;;;;;;;4952947;28;20047;-70
2024/01/18 01:41:25;;;;;;;15.50;7.07;;;;;;;;;;4952813;28;20074;-70
2024/01/18 01:43:58;;;;;;;11.05;7.18;;;;;;;;;;4952933;28;20082;-70
2024/01/18 01:46:24;;;;;;;16.23;7.00;;;;;;;;;;4958343;28;20047;-70
2024/01/18 01:48:50;;;;;;;10.57;7.03;;;;;;;;;;4968941;28;20038;-70
2024/01/18 01:51:16;;;;;;;14.98;6.80;;;;;;;;;;4952387;28;20047;-70
2024/01/18 01:53:42;;;;;;;12.18;7.13;;;;;;;;;;4971825;28;20049;-70
2024/01/18 01:56:08;;;;;;;13.35;6.63;;;;;;;;;;4972226;28;20038;-70
2024/01/18 01:58:36;;;;;;;8.75;5.95;;;;;;;;;;4979423;28;20086;-70
2024/01/18 02:01:02;;;;;;;11.30;6.13;;;;;;;;;;4952607;28;20101;-70
2024/01/18 02:03:28;;;;;;;11.52;5.63;;;;;;;;;;4953632;28;20137;-70
2024/01/18 02:05:55;;;;;;;12.88;5.15;;;;;;;;;;4956213;28;20726;-70
2024/01/18 02:08:22;;;;;;;12.20;5.25;;;;;;;;;;4973824;28;20800;-70
2024/01/18 02:10:48;;;;;;;11.13;5.47;;;;;;;;;;4963952;28;20058;-70
2024/01/18 02:13:15;;;;;;;12.88;6.38;;;;;;;;;;4959679;28;20050;-70
2024/01/18 02:15:41;;;;;;;13.50;6.05;;;;;;;;;;4972487;28;20058;-70
2024/01/18 02:18:07;;;;;;;10.43;5.80;;;;;;;;;;4961773;28;20047;-70
2024/01/18 02:20:33;;;;;;;12.75;6.60;;;;;;;;;;4969956;28;20587;-70
2024/01/18 02:23:01;;;;;;;9.40;5.38;;;;;;;;;;4957037;28;20070;-70
2024/01/18 02:25:28;;;;;;;10.23;5.50;;;;;;;;;;4957878;28;20038;-70
2024/01/18 02:27:57;;;;;;;15.32;5.97;;;;;;;;;;4940105;28;20093;-70
2024/01/18 02:30:24;;;;;;;12.52;5.32;;;;;;;;;;4959675;28;20461;-70
2024/01/18 02:32:50;;;;;;;16.00;5.55;;;;;;;;;;4972740;28;20043;-70
2024/01/18 02:35:16;;;;;;;10.57;5.13;;;;;;;;;;4955985;28;20078;-71
2024/01/18 02:37:42;;;;;;;10.65;5.20;;;;;;;;;;4971534;28;20045;-71
2024/01/18 02:40:09;;;;;;;7.35;4.95;;;;;;;;;;4971206;28;20039;-71
2024/01/18 02:42:35;;;;;;;10.73;5.18;;;;;;;;;;4971744;28;20039;-71
2024/01/18 02:45:03;;;;;;;6.57;4.57;;;;;;;;;;4971825;28;20042;-71
2024/01/18 02:47:29;;;;;;;9.10;4.78;;;;;;;;;;4971907;28;20074;-71
2024/01/18 02:49:58;;;;;;;9.50;4.68;;;;;;;;;;4971428;28;20456;-70
2024/01/18 02:52:24;;;;;;;11.75;4.57;;;;;;;;;;4955432;28;20106;-70
2024/01/18 02:54:53;;;;;;;9.20;4.05;;;;;;;;;;4962825;28;20629;-70
2024/01/18 02:57:19;;;;;;;8.80;4.07;;;;;;;;;;4971629;28;20046;-70
2024/01/18 02:59:45;;;;;;;13.82;4.15;;;;;;;;;;4971471;28;20109;-70
2024/01/18 03:02:11;;;;;;;6.75;3.67;;;;;;;;;;4969286;28;20045;-70
2024/01/18 03:04:37;;;;;;;6.50;3.78;;;;;;;;;;4955280;28;20050;-71
2024/01/18 03:07:03;;;;;;;7.55;3.67;;;;;;;;;;4954715;28;20055;-71
2024/01/18 03:09:29;;;;;;;7.25;3.88;;;;;;;;;;4955604;28;20065;-71
2024/01/18 03:11:55;;;;;;;9.80;4.47;;;;;;;;;;4947102;28;20035;-71
2024/01/18 03:14:21;;;;;;;12.75;4.28;;;;;;;;;;4968506;28;20046;-71
2024/01/18 03:16:47;;;;;;;12.18;4.93;;;;;;;;;;4954534;28;20042;-71
2024/01/18 03:19:13;;;;;;;12.43;5.28;;;;;;;;;;4964853;28;20478;-71
2024/01/18 03:21:39;;;;;;;7.25;4.38;;;;;;;;;;4973028;28;20042;-71
2024/01/18 03:24:06;;;;;;;8.45;4.38;;;;;;;;;;4958228;28;20091;-71
2024/01/18 03:26:33;;;;;;;8.68;4.30;;;;;;;;;;4958398;28;20105;-71
2024/01/18 03:28:59;;;;;;;11.13;4.82;;;;;;;;;;4954669;28;20092;-71
2024/01/18 03:31:25;;;;;;;7.53;4.22;;;;;;;;;;4968227;28;20046;-71
2024/01/18 03:33:51;;;;;;;8.32;4.47;;;;;;;;;;4972888;28;20043;-71
2024/01/18 03:36:18;;;;;;;10.00;4.32;;;;;;;;;;4954965;28;20091;-71
2024/01/18 03:38:44;;;;;;;7.70;4.57;;;;;;;;;;4954832;28;20078;-71
2024/01/18 03:41:10;;;;;;;7.90;4.18;;;;;;;;;;4954533;28;20156;-71
2024/01/18 03:43:36;;;;;;;6.75;3.90;;;;;;;;;;4966476;28;20066;-71
2024/01/18 03:46:02;;;;;;;10.13;3.80;;;;;;;;;;4957228;28;20121;-71
2024/01/18 03:48:28;;;;;;;6.68;3.72;;;;;;;;;;4969404;28;20050;-71
2024/01/18 03:50:54;;;;;;;7.40;3.63;;;;;;;;;;4960784;28;20041;-71
2024/01/18 03:53:20;;;;;;;7.45;3.80;;;;;;;;;;4970383;28;20042;-71
2024/01/18 03:55:46;;;;;;;7.05;3.60;;;;;;;;;;4970611;28;20389;-71
2024/01/18 03:58:12;;;;;;;8.45;4.35;;;;;;;;;;4970171;28;20035;-71
2024/01/18 04:00:39;;;;;;;13.43;4.63;;;;;;;;;;4954184;28;20046;-71
2024/01/18 04:03:05;;;;;;;7.93;4.22;;;;;;;;;;4960890;28;20043;-71
2024/01/18 04:05:31;;;;;;;6.53;3.92;;;;;;;;;;4954591;28;20058;-70
2024/01/18 04:07:57;;;;;;;5.22;3.55;;;;;;;;;;4955954;28;20042;-70
2024/01/18 04:10:23;;;;;;;7.47;3.80;;;;;;;;;;4954431;28;20137;-71
2024/01/18 04:12:49;;;;;;;5.13;3.63;;;;;;;;;;4937759;28;20138;-71
2024/01/18 04:15:15;;;;;;;6.35;3.40;;;;;;;;;;4965558;28;20046;-71
2024/01/18 04:17:41;;;;;;;7.82;3.53;;;;;;;;;;4956361;28;20473;-71
2024/01/18 04:20:10;;;;;;;5.70;3.05;;;;;;;;;;4970588;28;20041;-71
2024/01/18 04:22:36;;;;;;;6.05;3.30;;;;;;;;;;4966449;28;20607;-71
2024/01/18 04:25:03;;;;;;;7.22;3.65;;;;;;;;;;4954155;28;20042;-71
2024/01/18 04:27:29;;;;;;;6.85;3.22;;;;;;;;;;4959153;28;20061;-71
2024/01/18 04:29:55;;;;;;;5.38;3.13;;;;;;;;;;4954099;28;20752;-71
2024/01/18 04:32:21;;;;;;;8.60;3.15;;;;;;;;;;4972727;28;20042;-71
2024/01/18 04:34:47;;;;;;;7.00;3.25;;;;;;;;;;4965837;28;20508;-71
2024/01/18 04:37:13;;;;;;;6.82;3.28;;;;;;;;;;4937926;28;20090;-71
2024/01/18 04:39:39;;;;;;;5.00;3.47;;;;;;;;;;4953544;28;20505;-71
2024/01/18 04:42:05;;;;;;;5.93;3.10;;;;;;;;;;4953322;28;20038;-71
2024/01/18 04:44:31;;;;;;;5.70;3.13;;;;;;;;;;4972740;28;20046;-71
2024/01/18 04:46:57;;;;;;;9.98;3.10;;;;;;;;;;4964630;28;20034;-71
2024/01/18 04:49:24;;;;;;;6.53;3.17;;;;;;;;;;4962039;28;20039;-71
2024/01/18 04:51:50;;;;;;;7.63;3.13;;;;;;;;;;4957423;28;20097;-71
2024/01/18 04:54:16;;;;;;;5.78;3.38;;;;;;;;;;4953026;28;20462;-71
2024/01/18 04:56:42;;;;;;;6.90;2.92;;;;;;;;;;4969493;28;20043;-71
2024/01/18 04:59:08;;;;;;;7.35;2.83;;;;;;;;;;4963038;28;20532;-71
2024/01/18 05:01:39;;;;;;;6.22;3.10;;;;;;;;;;4953344;28;20123;-71
2024/01/18 05:04:05;;;;;;;7.30;2.90;;;;;;;;;;4952728;28;20054;-71
2024/01/18 05:06:32;;;;;;;8.70;3.10;;;;;;;;;;4956910;28;20564;-71
2024/01/18 05:08:58;;;;;;;6.57;2.80;;;;;;;;;;4972907;28;20042;-71
2024/01/18 05:11:25;;;;;;;7.47;2.72;;;;;;;;;;4965274;28;20048;-71
2024/01/18 05:13:51;;;;;;;4.47;3.00;;;;;;;;;;4972049;28;20057;-71
2024/01/18 05:16:18;;;;;;;11.25;3.20;;;;;;;;;;4966857;28;20096;-71
2024/01/18 05:18:44;;;;;;;6.32;2.58;;;;;;;;;;4955160;28;20133;-71
2024/01/18 05:21:10;;;;;;;5.35;3.38;;;;;;;;;;4956470;28;20038;-71
2024/01/18 05:23:36;;;;;;;8.02;3.03;;;;;;;;;;4959382;28;20126;-70
2024/01/18 05:26:03;;;;;;;5.25;2.78;;;;;;;;;;4959822;28;20042;-70
2024/01/18 05:28:29;;;;;;;5.80;2.78;;;;;;;;;;4952979;28;20047;-70
2024/01/18 05:30:56;;;;;;;5.10;3.03;;;;;;;;;;4953247;28;20061;-70
2024/01/18 05:33:22;;;;;;;7.35;3.10;;;;;;;;;;4952499;28;20054;-70
2024/01/18 05:35:48;;;;;;;7.18;3.10;;;;;;;;;;4963706;28;20405;-70
2024/01/18 05:38:14;;;;;;;5.80;3.05;;;;;;;;;;4970193;28;20047;-70
2024/01/18 05:40:40;;;;;;;6.40;3.53;;;;;;;;;;4975985;28;20049;-71
2024/01/18 05:43:07;;;;;;;5.30;3.13;;;;;;;;;;4968692;28;20042;-70
2024/01/18 05:45:33;;;;;;;6.18;2.63;;;;;;;;;;4956376;28;20125;-70
2024/01/18 05:48:01;;;;;;;6.30;3.22;;;;;;;;;;4973967;28;20123;-70
2024/01/18 05:50:27;;;;;;;7.05;3.05;;;;;;;;;;4972108;28;20054;-71
2024/01/18 05:52:53;;;;;;;4.63;2.95;;;;;;;;;;4956306;28;20042;-71
2024/01/18 05:55:19;;;;;;;5.10;2.75;;;;;;;;;;4955765;28;20034;-71
2024/01/18 05:57:45;;;;;;;6.00;2.70;;;;;;;;;;4956253;28;20053;-71
2024/01/18 06:00:12;;;;;;;4.00;2.72;;;;;;;;;;4966284;28;20053;-71
2024/01/18 06:02:38;;;;;;;6.75;2.97;;;;;;;;;;4959949;28;20077;-71
2024/01/18 06:05:06;;;;;;;6.05;2.70;;;;;;;;;;4975055;28;20446;-70
2024/01/18 06:07:33;;;;;;;6.65;2.97;;;;;;;;;;4964916;28;20072;-70
2024/01/18 06:09:59;;;;;;;7.00;3.33;;;;;;;;;;4955665;28;20051;-71
2024/01/18 06:12:25;;;;;;;5.60;3.13;;;;;;;;;;4961085;28;20054;-71
2024/01/18 06:14:51;;;;;;;7.53;3.17;;;;;;;;;;4957173;28;20097;-71
2024/01/18 06:17:17;;;;;;;4.80;3.28;;;;;;;;;;4955745;28;20043;-71
2024/01/18 06:19:43;;;;;;;5.78;3.20;;;;;;;;;;4963947;28;20047;-71
2024/01/18 06:22:09;;;;;;;5.28;2.92;;;;;;;;;;4975306;28;20042;-71
2024/01/18 06:24:36;;;;;;;5.60;2.78;;;;;;;;;;4971018;28;20505;-71
2024/01/18 06:27:02;;;;;;;5.63;2.90;;;;;;;;;;4969403;28;20057;-70
2024/01/18 06:29:30;;;;;;;4.03;2.70;;;;;;;;;;4955914;28;20405;-70
2024/01/18 06:31:56;;;;;;;4.53;2.60;;;;;;;;;;4953292;28;20042;-70
2024/01/18 06:34:22;;;;;;;3.75;2.28;;;;;;;;;;4974455;28;20129;-70
2024/01/18 06:36:48;;;;;;;4.57;2.17;;;;;;;;;;4955690;28;20046;-70
2024/01/18 06:39:15;;;;;;;6.75;3.25;;;;;;;;;;4955627;28;20046;-71
2024/01/18 06:41:41;;;;;;;9.50;2.78;;;;;;;;;;4955697;28;20039;-67
2024/01/18 06:44:08;;;;;;;6.78;2.40;;;;;;;;;;4977282;28;20054;-70
2024/01/18 06:46:34;;;;;;;4.80;2.17;;;;;;;;;;4972388;28;20446;-69
2024/01/18 06:49:00;;;;;;;4.85;2.80;;;;;;;;;;4972599;28;20043;-70
2024/01/18 06:51:28;;;;;;;4.95;2.50;;;;;;;;;;4943572;28;20133;-69
2024/01/18 06:53:54;;;;;;;5.10;2.35;;;;;;;;;;4973507;28;20500;-69
2024/01/18 06:56:20;;;;;;;4.18;2.00;;;;;;;;;;4955270;28;20043;-69
2024/01/18 06:58:46;;;;;;;5.72;1.80;;;;;;;;;;4972765;28;20050;-68
2024/01/18 07:01:12;;;;;;;2.80;1.83;;;;;;;;;;4972101;28;20039;-68
2024/01/18 07:03:40;;;;;;;5.53;1.60;;;;;;;;;;4972245;28;20053;-68
2024/01/18 07:06:06;;;;;;;4.43;2.20;;;;;;;;;;4972344;28;20185;-68
2024/01/18 07:08:32;;;;;;;5.28;2.20;;;;;;;;;;4954670;28;20047;-68
2024/01/18 07:10:58;;;;;;;5.22;2.22;;;;;;;;;;4954563;28;20051;-68
2024/01/18 07:13:27;;;;;;;3.40;2.10;;;;;;;;;;4970121;28;20051;-68
2024/01/18 07:15:53;;;;;;;7.38;2.58;;;;;;;;;;4970215;28;20122;-68
2024/01/18 07:18:19;;;;;;;9.88;2.65;;;;;;;;;;4963382;28;20154;-68
2024/01/18 07:20:44;;;;;;;7.82;2.28;;;;;;;;;;4959720;28;20053;-69
2024/01/18 07:23:10;;;;;;;5.28;2.67;;;;;;;;;;4972117;28;20034;-68
2024/01/18 07:25:36;;;;;;;5.53;2.55;;;;;;;;;;4973775;28;20042;-69
2024/01/18 07:28:02;;;;;;;4.13;2.38;;;;;;;;;;4965740;28;20074;-69
2024/01/18 07:30:29;;;;;;;4.45;2.25;;;;;;;;;;4953282;28;20043;-70
2024/01/18 07:32:55;;;;;;;7.75;2.63;;;;;;;;;;4971063;28;20049;-70
2024/01/18 07:35:21;;;;;;;8.13;2.47;;;;;;;;;;4956355;28;20109;-70
2024/01/18 07:37:47;;;;;;;5.97;2.30;;;;;;;;;;4955004;28;20583;-72
2024/01/18 07:40:14;;;;;;;8.50;2.92;;;;;;;;;;4954264;28;20038;-71
2024/01/18 07:42:40;;;;;;;5.75;2.55;;;;;;;;;;4955261;28;20050;-70
2024/01/18 07:45:07;;;;;;;6.38;2.72;;;;;;;;;;4954566;28;20047;-70
2024/01/18 07:47:33;;;;;;;3.88;2.28;;;;;;;;;;4971137;28;20066;-70
2024/01/18 07:49:59;;;;;;;7.55;3.65;;;;;;;;;;4971961;28;20125;-69
2024/01/18 07:52:25;;;;;;;4.88;2.83;;;;;;;;;;4963572;28;20117;-70
2024/01/18 07:54:51;;;;;;;6.95;3.22;;;;;;;;;;4961641;28;20673;-69
2024/01/18 07:57:17;;;;;;;6.60;2.88;;;;;;;;;;4969188;28;20126;-69
2024/01/18 07:59:43;;;;;;;6.72;3.33;;;;;;;;;;4964044;28;20051;-69
2024/01/18 08:02:09;;;;;;;6.15;3.00;;;;;;;;;;4953998;28;20049;-69
2024/01/18 08:04:35;;;;;;;9.15;4.03;;;;;;;;;;4953649;28;20046;-68
2024/01/18 08:07:01;;;;;;;8.80;4.00;;;;;;;;;;4970129;28;20054;-70
2024/01/18 08:09:27;;;;;;;6.82;3.42;;;;;;;;;;4955361;28;20047;-69
2024/01/18 08:11:53;;;;;;;5.75;3.42;;;;;;;;;;4954042;28;20065;-69
2024/01/18 08:14:20;;;;;;;9.02;4.47;;;;;;;;;;4969248;28;20089;-70
2024/01/18 08:16:46;;;;;;;8.30;3.63;;;;;;;;;;4944820;28;20043;-69
2024/01/18 08:19:12;;;;;;;8.23;5.45;;;;;;;;;;4963685;28;20105;-69
2024/01/18 08:21:43;;;;;;;8.02;5.20;;;;;;;;;;4955994;28;20047;-69
2024/01/18 08:24:09;;;;;;;8.55;4.28;;;;;;;;;;4963176;28;20050;-70
2024/01/18 08:26:35;;;;;;;6.35;3.75;;;;;;;;;;4972084;28;20477;-69
2024/01/18 08:29:01;;;;;;;7.30;4.32;;;;;;;;;;4963324;28;20070;-69
2024/01/18 08:31:27;;;;;;;8.60;3.90;;;;;;;;;;4961279;28;20043;-69
2024/01/18 08:33:53;;;;;;;8.43;3.72;;;;;;;;;;4969101;28;20051;-70
2024/01/18 08:36:20;;;;;;;10.05;4.10;;;;;;;;;;4961539;28;20205;-71
2024/01/18 08:38:45;;;;;;;17.75;6.13;;;;;;;;;;4962777;28;20050;-70
2024/01/18 08:41:11;;;;;;;17.20;9.65;;;;;;;;;;4959967;28;20666;-69
2024/01/18 08:43:37;;;;;;;12.32;6.35;;;;;;;;;;4953271;28;20177;-70
2024/01/18 08:46:06;;;;;;;6.50;4.40;;;;;;;;;;4958417;28;20038;-69
2024/01/18 08:48:34;;;;;;;9.52;4.57;;;;;;;;;;4956611;28;20149;-69
2024/01/18 08:51:00;;;;;;;7.07;4.20;;;;;;;;;;4952681;28;20050;-71
2024/01/18 08:53:26;;;;;;;10.48;5.13;;;;;;;;;;4956416;28;20078;-70
2024/01/18 08:55:52;;;;;;;8.60;4.07;;;;;;;;;;4960653;28;20553;-70
2024/01/18 08:58:18;;;;;;;10.52;3.90;;;;;;;;;;4953062;28;20045;-70
2024/01/18 09:00:44;;;;;;;5.97;3.75;;;;;;;;;;4950729;28;20054;-68
2024/01/18 09:03:10;;;;;;;11.82;3.78;;;;;;;;;;4952021;28;20041;-68
2024/01/18 09:05:39;;;;;;;7.13;3.38;;;;;;;;;;4951779;28;20058;-70
2024/01/18 09:08:05;;;;;;;9.15;3.60;;;;;;;;;;4951819;28;20058;-70
2024/01/18 09:10:31;;;;;;;7.00;2.97;;;;;;;;;;4952918;28;20127;-69
2024/01/18 09:12:57;;;;;;;12.88;2.47;;;;;;;;;;4968678;28;20625;-70
2024/01/18 09:15:24;;;;;;;8.18;2.30;;;;;;;;;;4968506;28;20042;-69
2024/01/18 09:17:51;;;;;;;7.05;2.17;;;;;;;;;;4938093;28;20118;-70
2024/01/18 09:20:17;;;;;;;7.10;2.00;;;;;;;;;;4952144;28;20049;-68
2024/01/18 09:22:43;;;;;;;6.85;2.25;;;;;;;;;;4952177;28;20121;-69
2024/01/18 09:25:09;;;;;;;2.90;1.83;;;;;;;;;;4969288;28;20066;-69
2024/01/18 09:27:35;;;;;;;2.75;1.50;;;;;;;;;;4954045;28;20042;-70
2024/01/18 09:30:02;;;;;;;3.38;2.13;;;;;;;;;;4953938;28;20529;-69
2024/01/18 09:32:28;;;;;;;4.25;1.90;;;;;;;;;;4953490;28;20055;-69
2024/01/18 09:34:54;;;;;;;4.13;1.50;;;;;;;;;;4937501;28;20077;-70
2024/01/18 09:37:20;;;;;;;5.32;1.70;;;;;;;;;;4952669;28;20043;-71
2024/01/18 09:39:46;;;;;;;9.65;1.90;;;;;;;;;;4952979;28;20102;-72
2024/01/18 09:42:15;;;;;;;5.13;1.60;;;;;;;;;;4952715;28;20050;-71
2024/01/18 09:44:45;;;;;;;3.70;1.25;;;;;;;;;;4937155;28;20043;-71
2024/01/18 09:47:11;;;;;;;5.10;1.55;;;;;;;;;;4952831;28;20047;-70
2024/01/18 09:49:37;;;;;;;5.13;2.28;;;;;;;;;;4962983;28;20047;-69
2024/01/18 09:52:04;;;;;;;5.68;1.13;;;;;;;;;;4969785;28;20097;-69
2024/01/18 09:54:30;;;;;;;8.25;1.45;;;;;;;;;;4952878;28;20054;-69
2024/01/18 09:56:59;;;;;;;6.07;1.50;;;;;;;;;;4968317;28;20034;-68
2024/01/18 09:59:27;;;;;;;4.15;1.20;;;;;;;;;;4953324;28;20605;-68
2024/01/18 10:01:54;;;;;;;3.85;1.40;;;;;;;;;;4968127;28;20125;-68
2024/01/18 10:04:20;;;;;;;5.53;1.80;;;;;;;;;;4952388;28;20052;-69
2024/01/18 10:06:46;;;;;;;4.70;1.48;;;;;;;;;;4952758;28;20054;-71
2024/01/18 10:09:15;;;;;;;3.17;1.10;;;;;;;;;;4953489;28;20438;-69
2024/01/18 10:11:44;;;;;;;7.60;1.40;;;;;;;;;;4960308;28;20047;-70
2024/01/18 10:14:10;;;;;;;6.15;2.13;;;;;;;;;;4958291;28;20084;-70
2024/01/18 10:16:37;;;;;;;7.20;1.60;;;;;;;;;;4941363;28;20708;-70
2024/01/18 10:19:05;;;;;;;6.75;1.40;;;;;;;;;;4957850;28;20047;-69
2024/01/18 10:21:33;;;;;;;7.72;1.10;;;;;;;;;;4961445;28;20129;-70
2024/01/18 10:23:59;;;;;;;3.38;1.15;;;;;;;;;;4960783;28;20045;-71
2024/01/18 10:26:30;;;;;;;6.22;1.55;;;;;;;;;;4965845;28;20034;-70
2024/01/18 10:28:56;;;;;;;4.75;1.13;;;;;;;;;;4963726;28;20053;-70
2024/01/18 10:31:23;;;;;;;5.40;1.20;;;;;;;;;;4967094;28;20039;-70
2024/01/18 10:33:49;;;;;;;5.72;1.33;;;;;;;;;;4960808;28;20042;-69
2024/01/18 10:36:15;;;;;;;4.72;1.50;;;;;;;;;;4960981;28;20057;-71
2024/01/18 10:38:41;;;;;;;6.35;1.08;;;;;;;;;;4960753;28;20098;-71
2024/01/18 10:41:08;;;;;;;8.27;1.90;;;;;;;;;;4961876;28;20042;-69
2024/01/18 10:43:34;;;;;;;4.20;1.70;;;;;;;;;;4965414;28;20042;-69
2024/01/18 10:46:01;;;;;;;2.83;1.20;;;;;;;;;;4966391;28;20041;-70
2024/01/18 10:48:27;;;;;;;2.75;1.13;;;;;;;;;;4961478;28;20496;-69
2024/01/18 10:50:55;;;;;;;3.67;0.88;;;;;;;;;;4961245;28;20073;-71
2024/01/18 10:53:22;;;;;;;7.85;1.10;;;;;;;;;;4961612;28;20043;-70
2024/01/18 10:55:48;;;;;;;6.38;1.63;;;;;;;;;;4963650;28;20077;-71
2024/01/18 10:58:14;;;;;;;3.10;0.88;;;;;;;;;;4976825;28;20514;-71
2024/01/18 11:00:40;;;;;;;2.38;1.30;;;;;;;;;;4947173;28;20129;-69
2024/01/18 11:03:07;;;;;;;6.03;0.90;;;;;;;;;;4962639;28;20121;-69
2024/01/18 11:05:33;;;;;;;2.78;0.98;;;;;;;;;;4948088;28;20038;-71
2024/01/18 11:08:00;;;;;;;3.72;1.00;;;;;;;;;;4962463;28;20061;-70
2024/01/18 11:10:26;;;;;;;2.97;0.95;;;;;;;;;;4948019;28;20042;-70
2024/01/18 11:12:52;;;;;;;2.58;0.95;;;;;;;;;;4963434;28;20050;-70
2024/01/18 11:15:31;;;;;;;7.22;1.38;;;;;;;;;;4972246;28;20041;-70
2024/01/18 11:18:00;;;;;;;4.57;1.00;;;;;;;;;;4961941;28;20042;-70
2024/01/18 11:20:26;;;;;;;2.00;0.93;;;;;;;;;;4957702;28;20046;-69
2024/01/18 11:22:58;;;;;;;4.68;1.20;;;;;;;;;;4962124;28;20035;-69
2024/01/18 11:25:32;;;;;;;4.93;1.40;;;;;;;;;;4960971;28;20039;-70
2024/01/18 11:28:00;;;;;;;4.50;1.30;;;;;;;;;;4973716;28;20093;-70
2024/01/18 11:30:36;;;;;;;4.60;1.15;;;;;;;;;;4956980;28;20046;-70
2024/01/18 11:33:02;;;;;;;11.23;3.60;;;;;;;;;;4946452;28;20045;-70
2024/01/18 11:35:30;;;;;;;10.70;3.70;;;;;;;;;;4960602;28;20046;-70
2024/01/18 11:38:17;;;;;;;8.50;2.17;;;;;;;;;;4962066;28;20069;-69
2024/01/18 11:40:43;;;;;;;4.43;1.48;;;;;;;;;;4976417;28;20042;-69
2024/01/18 11:43:09;;;;;;;4.82;1.30;;;;;;;;;;4963630;28;20064;-67
2024/01/18 11:45:35;;;;;;;5.00;2.00;;;;;;;;;;4976438;28;20038;-69
2024/01/18 11:48:04;;;;;;;6.80;2.25;;;;;;;;;;4960153;28;20049;-69
2024/01/18 11:50:30;;;;;;;9.20;2.70;;;;;;;;;;4960544;28;20046;-69
2024/01/18 11:52:56;;;;;;;6.55;1.80;;;;;;;;;;4962341;28;20078;-69
2024/01/18 11:55:23;;;;;;;5.45;1.27;;;;;;;;;;4962282;28;20062;-70
2024/01/18 11:57:52;;;;;;;5.50;0.90;;;;;;;;;;4960889;28;20135;-70
2024/01/18 12:00:19;;;;;;;4.03;0.88;;;;;;;;;;4960358;28;20560;-70
2024/01/18 12:02:45;;;;;;;2.58;0.90;;;;;;;;;;4964149;28;20100;-70
2024/01/18 12:05:11;;;;;;;3.22;0.80;;;;;;;;;;4961659;28;20050;-70
2024/01/18 12:07:43;;;;;;;2.10;0.70;;;;;;;;;;4961418;28;20051;-70
2024/01/18 12:10:10;;;;;;;2.60;0.80;;;;;;;;;;4978762;28;20062;-70
2024/01/18 12:12:39;;;;;;;6.20;0.98;;;;;;;;;;4945637;28;20089;-70
2024/01/18 12:15:06;;;;;;;3.53;1.20;;;;;;;;;;4962694;28;20047;-70
2024/01/18 12:17:32;;;;;;;1.25;0.93;;;;;;;;;;4935435;28;20062;-69
2024/01/18 12:19:59;;;;;;;4.63;1.17;;;;;;;;;;4970392;28;20077;-70
2024/01/18 12:22:26;;;;;;;4.70;1.27;;;;;;;;;;4953923;28;20078;-68
2024/01/18 12:24:52;;;;;;;5.38;1.10;;;;;;;;;;4961741;28;20485;-69
2024/01/18 12:27:19;;;;;;;4.97;1.10;;;;;;;;;;4963389;28;20085;-69
2024/01/18 12:29:46;;;;;;;3.60;0.90;;;;;;;;;;4962268;28;20054;-70
2024/01/18 12:32:16;;;;;;;5.32;0.82;;;;;;;;;;4959681;28;20038;-69
2024/01/18 12:34:42;;;;;;;2.10;1.13;;;;;;;;;;4980502;28;20043;-68
2024/01/18 12:37:08;;;;;;;5.00;0.85;;;;;;;;;;4960837;28;20421;-69
2024/01/18 12:39:34;;;;;;;1.50;0.68;;;;;;;;;;4963411;28;20125;-69
2024/01/18 12:42:01;;;;;;;3.03;0.70;;;;;;;;;;4961133;28;20057;-70
2024/01/18 12:44:27;;;;;;;2.78;0.80;;;;;;;;;;4960661;28;20073;-69
2024/01/18 12:46:58;;;;;;;6.05;0.90;;;;;;;;;;4959551;28;20115;-70
2024/01/18 12:49:25;;;;;;;1.80;0.75;;;;;;;;;;4976986;28;20062;-69
2024/01/18 12:52:01;;;;;;;1.90;1.33;;;;;;;;;;4978106;28;20087;-70
2024/01/18 12:54:30;;;;;;;2.05;1.30;;;;;;;;;;4959345;28;20054;-70
2024/01/18 12:56:57;;;;;;;1.00;0.63;;;;;;;;;;4961801;28;20057;-70
2024/01/18 12:59:24;;;;;;;2.58;0.80;;;;;;;;;;4963336;28;20053;-70
2024/01/18 13:01:51;;;;;;;3.00;1.00;;;;;;;;;;4967273;28;20057;-70
2024/01/18 13:04:25;;;;;;;4.88;0.60;;;;;;;;;;4960827;28;20485;-70
2024/01/18 13:06:52;;;;;;;3.10;1.02;;;;;;;;;;4953221;28;20096;-69
2024/01/18 13:09:22;;;;;;;2.17;0.60;;;;;;;;;;4954091;28;20747;-69
2024/01/18 13:11:48;;;;;;;2.15;0.70;;;;;;;;;;4964009;28;20129;-71
2024/01/18 13:14:15;;;;;;;1.30;0.70;;;;;;;;;;4936418;28;20051;-70
2024/01/18 13:16:42;;;;;;;2.58;0.90;;;;;;;;;;4958126;28;20046;-69
2024/01/18 13:19:13;;;;;;;3.90;0.70;;;;;;;;;;4955876;28;20035;-70
2024/01/18 13:21:41;;;;;;;4.15;1.23;;;;;;;;;;4962623;28;20047;-69
2024/01/18 13:24:08;;;;;;;2.95;0.60;;;;;;;;;;4959941;28;20659;-70
2024/01/18 13:26:44;;;;;;;4.20;0.70;;;;;;;;;;4977814;28;20121;-69
2024/01/18 13:29:10;;;;;;;1.73;0.70;;;;;;;;;;4961903;28;20046;-69
2024/01/18 13:31:36;;;;;;;5.40;1.00;;;;;;;;;;4959051;28;20038;-69
2024/01/18 13:34:03;;;;;;;5.15;0.80;;;;;;;;;;4975838;28;20040;-70
2024/01/18 13:36:29;;;;;;;3.83;0.70;;;;;;;;;;4966804;28;20050;-69
2024/01/18 13:38:56;;;;;;;3.28;0.70;;;;;;;;;;4968892;28;20490;-69
2024/01/18 13:41:22;;;;;;;5.70;0.95;;;;;;;;;;4976057;28;20054;-70
2024/01/18 13:43:48;;;;;;;1.83;0.75;;;;;;;;;;4962375;28;20130;-69
2024/01/18 13:46:14;;;;;;;2.22;0.77;;;;;;;;;;4963093;28;20077;-69
2024/01/18 13:48:42;;;;;;;2.35;0.90;;;;;;;;;;4974853;28;20046;-71
2024/01/18 13:51:08;;;;;;;3.60;1.05;;;;;;;;;;4959929;28;20070;-70
2024/01/18 13:53:34;;;;;;;3.13;0.98;;;;;;;;;;4957501;28;20523;-70
2024/01/18 13:56:01;;;;;;;3.92;0.85;;;;;;;;;;4979065;28;20043;-71
2024/01/18 13:58:27;;;;;;;3.22;0.80;;;;;;;;;;4957405;28;20551;-71
2024/01/18 14:00:53;;;;;;;2.80;0.80;;;;;;;;;;4965735;28;20043;-70
2024/01/18 14:03:19;;;;;;;1.50;0.75;;;;;;;;;;4962917;28;20043;-69
2024/01/18 14:05:46;;;;;;;4.63;0.82;;;;;;;;;;4962118;28;20073;-70
2024/01/18 14:08:13;;;;;;;4.05;0.73;;;;;;;;;;4966221;28;20058;-70
2024/01/18 14:10:39;;;;;;;3.40;0.80;;;;;;;;;;4959863;28;20058;-71
2024/01/18 14:13:06;;;;;;;7.25;0.93;;;;;;;;;;4965046;28;20054;-70
2024/01/18 14:15:33;;;;;;;5.65;1.00;;;;;;;;;;4963550;28;20042;-70
2024/01/18 14:18:00;;;;;;;2.97;1.20;;;;;;;;;;4960413;28;20524;-69
2024/01/18 14:20:26;;;;;;;6.25;1.00;;;;;;;;;;4963323;28;20058;-70
2024/01/18 14:22:52;;;;;;;3.45;0.90;;;;;;;;;;4952774;28;20065;-69
2024/01/18 14:25:19;;;;;;;3.83;0.80;;;;;;;;;;4973973;28;20114;-69
2024/01/18 14:27:45;;;;;;;3.97;0.77;;;;;;;;;;4958438;28;20639;-70
2024/01/18 14:30:11;;;;;;;9.48;0.93;;;;;;;;;;4961979;28;20102;-69
2024/01/18 14:32:38;;;;;;;4.72;1.50;;;;;;;;;;4977444;28;20038;-70
2024/01/18 14:35:05;;;;;;;6.03;0.85;;;;;;;;;;4976716;28;20062;-70
2024/01/18 14:37:31;;;;;;;7.50;0.95;;;;;;;;;;4966892;28;20046;-69